createdAt,value
2023-04-13T00:00:35.200Z,98776.13
2023-04-13T00:03:04.357Z,98772.16
2023-04-13T00:05:34.603Z,98768.69
2023-04-13T00:08:03.512Z,98769.22
2023-04-13T00:10:36.201Z,98753.06
2023-04-13T00:13:07.498Z,98762.31
2023-04-13T00:15:38.131Z,98753.81
2023-04-13T00:18:06.994Z,98765.47
2023-04-13T00:20:35.647Z,98762.81
2023-04-13T00:23:04.819Z,98762.81
2023-04-13T00:25:33.416Z,98766.53
2023-04-13T00:28:03.545Z,98769.16
2023-04-13T00:30:33.781Z,98761.75
2023-04-13T00:33:05.158Z,98766.75
2023-04-13T00:35:34.003Z,98765.44
2023-04-13T00:38:04.416Z,98760.66
2023-04-13T00:40:33.126Z,98736.78
2023-04-13T00:43:02.421Z,98745.81
2023-04-13T00:45:37.908Z,98742.91
2023-04-13T00:48:06.969Z,98744.19
2023-04-13T00:50:35.807Z,98751.56
2023-04-13T00:53:06.933Z,98748.91
2023-04-13T00:55:42.166Z,98747.81
2023-04-13T00:58:11.077Z,98751.00
2023-04-13T01:00:43.110Z,98758.94
2023-04-13T01:03:13.025Z,98758.63
2023-04-13T01:05:51.849Z,98747.81
2023-04-13T01:08:28.688Z,98752.31
2023-04-13T01:11:05.922Z,98749.91
2023-04-13T01:13:42.260Z,98745.41
2023-04-13T01:16:19.687Z,98757.59
2023-04-13T01:18:54.376Z,98754.97
2023-04-13T01:21:27.717Z,98759.44
2023-04-13T01:24:16.988Z,98761.53
2023-04-13T01:26:58.516Z,98765.25
2023-04-13T01:29:29.948Z,98769.19
2023-04-13T01:31:58.908Z,98752.53
2023-04-13T01:34:27.587Z,98765.75
2023-04-13T01:36:56.925Z,98762.53
2023-04-13T01:39:26.913Z,98759.38
2023-04-13T01:42:03.771Z,98747.19
2023-04-13T01:44:36.536Z,98751.94
2023-04-13T01:47:16.341Z,98737.94
2023-04-13T01:50:10.497Z,98749.25
2023-04-13T01:52:51.318Z,98745.28
2023-04-13T01:55:21.055Z,98741.28
2023-04-13T01:57:56.065Z,98744.97
2023-04-13T02:00:35.903Z,98747.06
2023-04-13T02:03:09.761Z,98748.38
2023-04-13T02:05:40.303Z,98756.06
2023-04-13T02:08:10.316Z,98753.41
2023-04-13T02:10:46.871Z,98736.97
2023-04-13T02:13:15.333Z,98747.03
2023-04-13T02:15:45.844Z,98747.06
2023-04-13T02:18:14.556Z,98744.69
2023-04-13T02:20:46.330Z,98749.97
2023-04-13T02:23:15.874Z,98752.63
2023-04-13T02:25:48.048Z,98747.28
2023-04-13T02:28:18.793Z,98749.69
2023-04-13T02:30:49.736Z,98750.72
2023-04-13T02:33:19.241Z,98752.31
2023-04-13T02:35:48.941Z,98742.25
2023-04-13T02:38:18.456Z,98740.38
2023-04-13T02:40:56.514Z,98733.66
2023-04-13T02:43:26.547Z,98739.03
2023-04-13T02:45:57.649Z,98737.94
2023-04-13T02:48:30.665Z,98741.59
2023-04-13T02:50:59.085Z,98741.28
2023-04-13T02:53:32.309Z,98731.50
2023-04-13T02:56:06.408Z,98736.25
2023-04-13T02:58:35.098Z,98736.25
2023-04-13T03:01:09.179Z,98748.38
2023-04-13T03:03:38.747Z,98747.00
2023-04-13T03:06:08.476Z,98747.00
2023-04-13T03:08:43.788Z,98742.53
2023-04-13T03:11:23.446Z,98744.59
2023-04-13T03:14:01.472Z,98741.72
2023-04-13T03:16:32.086Z,98749.88
2023-04-13T03:19:01.314Z,98762.53
2023-04-13T03:21:29.858Z,98761.72
2023-04-13T03:24:07.325Z,98756.94
2023-04-13T03:26:35.849Z,98755.59
2023-04-13T03:29:08.100Z,98748.47
2023-04-13T03:31:43.614Z,98745.53
2023-04-13T03:34:12.970Z,98751.38
2023-04-13T03:36:43.549Z,98740.81
2023-04-13T03:39:12.296Z,98743.44
2023-04-13T03:41:41.963Z,98750.31
2023-04-13T03:44:11.572Z,98751.38
2023-04-13T03:46:42.854Z,98761.44
2023-04-13T03:49:22.556Z,98751.84
2023-04-13T03:51:50.997Z,98761.13
2023-04-13T03:54:19.772Z,98751.84
2023-04-13T03:56:48.536Z,98760.84
2023-04-13T03:59:16.931Z,98752.91
2023-04-13T04:01:47.000Z,98746.28
2023-04-13T04:04:15.843Z,98757.13
2023-04-13T04:06:44.675Z,98764.81
2023-04-13T04:09:15.757Z,98760.34
2023-04-13T04:11:48.644Z,98761.94
2023-04-13T04:14:24.590Z,98773.53
2023-04-13T04:17:04.955Z,98764.25
2023-04-13T04:19:34.565Z,98770.34
2023-04-13T04:22:04.282Z,98770.34
2023-04-13T04:24:36.648Z,98777.47
2023-04-13T04:27:05.696Z,98775.06
2023-04-13T04:29:35.146Z,98774.50
2023-04-13T04:32:15.516Z,98781.34
2023-04-13T04:34:45.024Z,98774.50
2023-04-13T04:37:21.337Z,98782.63
2023-04-13T04:40:07.622Z,98782.34
2023-04-13T04:42:37.207Z,98780.25
2023-04-13T04:45:10.726Z,98786.34
2023-04-13T04:47:45.112Z,98794.00
2023-04-13T04:50:20.737Z,98794.00
2023-04-13T04:52:55.530Z,98794.00
2023-04-13T04:55:25.988Z,98793.19
2023-04-13T04:57:54.655Z,98799.84
2023-04-13T05:00:26.657Z,98808.50
2023-04-13T05:03:09.648Z,98807.94
2023-04-13T05:05:41.717Z,98812.97
2023-04-13T05:08:15.125Z,98818.50
2023-04-13T05:10:50.430Z,98826.69
2023-04-13T05:13:21.121Z,98822.91
2023-04-13T05:16:01.567Z,98831.66
2023-04-13T05:18:33.590Z,98835.63
2023-04-13T05:21:02.611Z,98845.97
2023-04-13T05:23:31.029Z,98833.25
2023-04-13T05:26:08.293Z,98827.16
2023-04-13T05:28:36.922Z,98832.19
2023-04-13T05:31:07.015Z,98836.63
2023-04-13T05:33:39.678Z,98845.09
2023-04-13T05:36:09.975Z,98836.63
2023-04-13T05:38:40.717Z,98844.78
2023-04-13T05:41:10.351Z,98837.66
2023-04-13T05:43:40.060Z,98844.88
2023-04-13T05:46:08.798Z,98843.81
2023-04-13T05:48:42.026Z,98860.19
2023-04-13T05:51:12.748Z,98846.69
2023-04-13T05:53:41.493Z,98862.28
2023-04-13T05:56:10.731Z,98862.50
2023-04-13T05:58:40.848Z,98861.97
2023-04-13T06:01:20.750Z,98858.28
2023-04-13T06:03:50.863Z,98862.81
2023-04-13T06:06:20.563Z,98857.31
2023-04-13T06:08:49.545Z,98853.41
2023-04-13T06:11:18.546Z,98857.84
2023-04-13T06:13:46.888Z,98867.94
2023-04-13T06:16:15.502Z,98869.28
2023-04-13T06:18:44.658Z,98871.94
2023-04-13T06:21:14.470Z,98865.84
2023-04-13T06:23:42.836Z,98858.41
2023-04-13T06:26:19.898Z,98863.44
2023-04-13T06:28:54.407Z,98863.69
2023-04-13T06:31:27.722Z,98877.69
2023-04-13T06:33:58.278Z,98876.09
2023-04-13T06:36:32.948Z,98875.06
2023-04-13T06:39:04.539Z,98878.50
2023-04-13T06:41:35.294Z,98888.56
2023-04-13T06:44:16.915Z,98879.13
2023-04-13T06:46:57.553Z,98870.69
2023-04-13T06:49:28.040Z,98881.00
2023-04-13T06:51:59.541Z,98875.25
2023-04-13T06:54:28.075Z,98875.00
2023-04-13T06:57:02.860Z,98879.25
2023-04-13T06:59:31.214Z,98882.94
2023-04-13T07:01:59.616Z,98888.75
2023-04-13T07:04:30.858Z,98888.75
2023-04-13T07:07:03.188Z,98881.31
2023-04-13T07:09:32.325Z,98891.97
2023-04-13T07:12:05.158Z,98891.88
2023-04-13T07:14:35.521Z,98894.28
2023-04-13T07:17:05.712Z,98894.53
2023-04-13T07:19:36.137Z,98894.28
2023-04-13T07:22:06.187Z,98894.59
2023-04-13T07:24:36.940Z,98895.16
2023-04-13T07:27:09.992Z,98909.19
2023-04-13T07:29:38.417Z,98900.53
2023-04-13T07:32:11.613Z,98899.25
2023-04-13T07:34:40.638Z,98914.59
2023-04-13T07:37:11.521Z,98916.19
2023-04-13T07:39:39.987Z,98905.63
2023-04-13T07:42:08.353Z,98920.44
2023-04-13T07:44:41.948Z,98922.81
2023-04-13T07:47:13.110Z,98923.66
2023-04-13T07:49:43.497Z,98925.97
2023-04-13T07:52:17.440Z,98922.50
2023-04-13T07:54:46.152Z,98928.06
2023-04-13T07:57:17.692Z,98937.50
2023-04-13T07:59:51.153Z,98929.81
2023-04-13T08:02:22.596Z,98933.50
2023-04-13T08:04:53.984Z,98946.41
2023-04-13T08:07:29.646Z,98936.41
2023-04-13T08:09:58.141Z,98931.66
2023-04-13T08:12:26.726Z,98943.03
2023-04-13T08:14:55.055Z,98931.94
2023-04-13T08:17:23.423Z,98939.06
2023-04-13T08:19:52.488Z,98954.41
2023-04-13T08:22:21.483Z,98936.47
2023-04-13T08:24:51.253Z,98937.50
2023-04-13T08:27:19.814Z,98929.34
2023-04-13T08:29:48.349Z,98946.53
2023-04-13T08:32:17.029Z,98948.94
2023-04-13T08:34:45.509Z,98947.91
2023-04-13T08:37:17.351Z,98941.56
2023-04-13T08:39:48.366Z,98939.50
2023-04-13T08:42:23.561Z,98948.44
2023-04-13T08:44:53.668Z,98949.00
2023-04-13T08:47:22.571Z,98938.44
2023-04-13T08:49:54.254Z,98949.06
2023-04-13T08:52:31.758Z,98941.69
2023-04-13T08:55:02.235Z,98956.81
2023-04-13T08:57:35.508Z,98965.31
2023-04-13T09:00:12.461Z,98964.47
2023-04-13T09:02:56.087Z,98965.78
2023-04-13T09:05:34.082Z,98968.19
2023-04-13T09:08:08.171Z,98961.03
2023-04-13T09:10:40.638Z,98956.53
2023-04-13T09:13:11.208Z,98963.44
2023-04-13T09:15:41.117Z,98972.22
2023-04-13T09:18:21.627Z,98980.66
2023-04-13T09:20:58.810Z,98979.13
2023-04-13T09:23:27.426Z,98973.84
2023-04-13T09:26:06.999Z,98981.78
2023-04-13T09:28:48.063Z,98992.09
2023-04-13T09:31:17.082Z,98982.09
2023-04-13T09:33:46.892Z,98991.34
2023-04-13T09:36:17.735Z,98987.69
2023-04-13T09:38:46.775Z,98987.69
2023-04-13T09:41:15.170Z,98983.38
2023-04-13T09:43:44.947Z,98987.69
2023-04-13T09:46:14.515Z,98990.84
2023-04-13T09:48:43.681Z,98987.97
2023-04-13T09:51:12.058Z,98995.66
2023-04-13T09:53:46.463Z,98990.63
2023-04-13T09:56:15.038Z,98980.59
2023-04-13T09:58:46.648Z,98986.44
2023-04-13T10:01:16.202Z,98984.59
2023-04-13T10:03:45.399Z,98988.56
2023-04-13T10:06:14.699Z,98983.84
2023-04-13T10:08:43.307Z,98981.50
2023-04-13T10:11:14.716Z,98982.00
2023-04-13T10:13:51.161Z,98979.66
2023-04-13T10:16:42.628Z,98980.44
2023-04-13T10:19:14.241Z,98983.16
2023-04-13T10:21:45.998Z,98988.19
2023-04-13T10:24:15.162Z,98987.13
2023-04-13T10:26:45.172Z,98995.63
2023-04-13T10:29:16.799Z,98987.69
2023-04-13T10:31:47.799Z,98982.16
2023-04-13T10:34:26.507Z,98985.84
2023-04-13T10:36:57.978Z,98986.41
2023-04-13T10:39:27.858Z,98990.66
2023-04-13T10:42:08.126Z,98989.38
2023-04-13T10:44:45.765Z,98990.94
2023-04-13T10:47:15.215Z,98975.66
2023-04-13T10:49:46.085Z,98983.06
2023-04-13T10:52:15.520Z,98976.47
2023-04-13T10:54:45.398Z,98984.97
2023-04-13T10:57:16.664Z,98988.41
2023-04-13T10:59:57.804Z,98987.63
2023-04-13T11:02:33.045Z,98991.84
2023-04-13T11:05:02.280Z,98995.88
2023-04-13T11:07:31.543Z,99006.44
2023-04-13T11:10:03.705Z,98994.81
2023-04-13T11:12:32.651Z,98992.47
2023-04-13T11:15:02.459Z,98993.00
2023-04-13T11:17:30.879Z,98990.66
2023-04-13T11:20:01.679Z,98992.31
2023-04-13T11:22:37.107Z,98994.19
2023-04-13T11:25:10.615Z,98985.22
2023-04-13T11:27:40.841Z,98990.00
2023-04-13T11:30:13.251Z,98987.09
2023-04-13T11:32:43.578Z,98989.50
2023-04-13T11:35:15.042Z,98989.00
2023-04-13T11:37:45.794Z,98981.06
2023-04-13T11:40:17.152Z,98983.78
2023-04-13T11:42:47.366Z,98980.88
2023-04-13T11:45:20.414Z,98981.44
2023-04-13T11:47:51.758Z,98972.19
2023-04-13T11:50:21.552Z,98974.31
2023-04-13T11:52:56.385Z,98967.97
2023-04-13T11:55:26.575Z,98966.94
2023-04-13T11:57:56.226Z,98965.88
2023-04-13T12:00:28.039Z,98965.63
2023-04-13T12:03:02.547Z,98950.03
2023-04-13T12:05:34.279Z,98956.66
2023-04-13T12:08:04.905Z,98957.00
2023-04-13T12:10:42.846Z,98958.59
2023-04-13T12:18:28.151Z,98957.84
2023-04-13T12:21:02.087Z,98962.38
2023-04-13T12:23:30.515Z,98957.84
2023-04-13T12:26:00.328Z,98958.16
2023-04-13T12:28:34.417Z,98952.34
2023-04-13T12:31:09.987Z,98962.44
2023-04-13T12:33:39.200Z,98952.38
2023-04-13T12:36:11.256Z,98955.06
2023-04-13T12:38:39.973Z,98945.81
2023-04-13T12:41:11.426Z,98953.50
2023-04-13T12:43:39.818Z,98954.56
2023-04-13T12:46:09.534Z,98948.75
2023-04-13T12:48:38.095Z,98947.25
2023-04-13T12:51:07.109Z,98930.00
2023-04-13T12:53:36.146Z,98939.88
2023-04-13T12:56:05.053Z,98935.13
2023-04-13T12:58:35.408Z,98946.81
2023-04-13T13:01:04.169Z,98946.56
2023-04-13T13:03:34.151Z,98936.25
2023-04-13T13:06:02.639Z,98943.44
2023-04-13T13:08:32.842Z,98940.84
2023-04-13T13:11:03.409Z,98937.66
2023-04-13T13:13:31.849Z,98924.94
2023-04-13T13:16:00.328Z,98918.59
2023-04-13T13:18:42.413Z,98914.09
2023-04-13T13:21:16.944Z,98923.41
2023-04-13T13:23:45.559Z,98923.66
2023-04-13T13:28:46.799Z,98925.28
2023-04-13T13:31:15.576Z,98940.16
2023-04-13T13:33:44.251Z,98944.94
2023-04-13T13:36:14.062Z,98981.31
2023-04-13T13:38:44.600Z,99010.75
2023-04-13T13:41:12.968Z,99035.94
2023-04-13T13:43:41.336Z,99030.06
2023-04-13T13:46:09.804Z,99022.09
2023-04-13T13:48:40.329Z,99015.97
2023-04-13T13:51:28.408Z,99007.47
2023-04-13T13:53:59.557Z,99017.25
2023-04-13T13:56:28.142Z,99005.03
2023-04-13T13:58:59.500Z,99003.94
2023-04-13T14:01:28.283Z,98999.97
2023-04-13T14:04:00.270Z,98995.69
2023-04-13T14:06:28.836Z,98990.06
2023-04-13T14:08:57.238Z,98993.22
2023-04-13T14:11:28.855Z,98993.72
2023-04-13T14:13:57.192Z,98983.41
2023-04-13T14:16:25.866Z,98985.78
2023-04-13T14:18:54.361Z,98987.63
2023-04-13T14:21:23.128Z,98984.44
2023-04-13T14:23:51.835Z,98989.72
2023-04-13T14:26:20.196Z,98982.03
2023-04-13T14:28:51.241Z,98990.78
2023-04-13T14:31:19.696Z,98990.25
2023-04-13T14:33:48.097Z,99004.56
2023-04-13T14:36:17.023Z,99012.22
2023-04-13T14:38:45.373Z,99033.69
2023-04-13T14:41:13.836Z,99023.59
2023-04-13T14:43:42.201Z,99036.06
2023-04-13T14:46:12.049Z,99030.19
2023-04-13T14:48:40.487Z,99029.41
2023-04-13T14:51:08.825Z,99024.09
2023-04-13T14:53:37.222Z,99025.97
2023-04-13T14:56:06.194Z,99023.59
2023-04-13T14:58:34.527Z,99021.97
2023-04-13T15:01:04.715Z,99017.72
2023-04-13T15:03:34.574Z,99024.09
2023-04-13T15:06:05.250Z,99015.59
2023-04-13T15:08:34.030Z,99004.97
2023-04-13T15:11:02.368Z,99015.59
2023-04-13T15:13:30.691Z,99016.34
2023-04-13T15:15:59.110Z,99021.94
2023-04-13T15:18:27.530Z,99012.13
2023-04-13T15:20:57.277Z,99012.94
2023-04-13T15:23:25.606Z,99018.78
2023-04-13T15:25:53.936Z,99021.44
2023-04-13T15:28:22.269Z,99015.88
2023-04-13T15:30:51.918Z,99019.88
2023-04-13T15:33:20.541Z,99010.34
2023-04-13T15:35:49.018Z,99014.81
2023-04-13T15:38:18.717Z,99017.22
2023-04-13T15:40:47.992Z,99023.31
2023-04-13T15:43:16.397Z,99017.75
2023-04-13T15:45:46.883Z,99019.38
2023-04-13T15:48:15.665Z,99012.22
2023-04-13T15:50:44.018Z,99024.13
2023-04-13T15:53:12.331Z,99023.88
2023-04-13T15:55:42.526Z,99034.22
2023-04-13T15:58:12.725Z,99026.25
2023-04-13T16:00:41.104Z,99034.78
2023-04-13T16:03:09.599Z,99020.72
2023-04-13T16:05:38.144Z,99039.56
2023-04-13T16:08:06.759Z,99047.25
2023-04-13T16:10:35.098Z,99046.19
2023-04-13T16:13:06.447Z,99064.50
2023-04-13T16:15:36.935Z,99079.34
2023-04-13T16:18:05.796Z,99093.13
2023-04-13T16:20:35.264Z,99095.25
2023-04-13T16:23:05.092Z,99097.34
2023-04-13T16:25:34.417Z,99090.69
2023-04-13T16:28:04.257Z,99096.50
2023-04-13T16:30:32.686Z,99098.88
2023-04-13T16:33:02.002Z,99100.97
2023-04-13T16:35:31.521Z,99086.66
2023-04-13T16:37:59.875Z,99092.22
2023-04-13T16:40:28.380Z,99096.47
2023-04-13T16:42:56.834Z,99103.63
2023-04-13T16:45:26.759Z,99108.91
2023-04-13T16:47:55.580Z,99102.81
2023-04-13T16:50:28.499Z,99096.16
2023-04-13T16:52:58.019Z,99095.63
2023-04-13T16:55:28.640Z,99103.03
2023-04-13T16:57:57.418Z,99105.16
2023-04-13T17:00:27.199Z,99087.91
2023-04-13T17:02:55.941Z,99073.28
2023-04-13T17:05:28.402Z,99085.78
2023-04-13T17:07:56.931Z,99091.34
2023-04-13T17:10:25.939Z,99088.69
2023-04-13T17:12:54.273Z,99090.00
2023-04-13T17:15:23.205Z,99083.38
2023-04-13T17:17:53.063Z,99081.75
2023-04-13T17:20:22.042Z,99086.25
2023-04-13T17:22:54.223Z,99084.38
2023-04-13T17:25:22.603Z,99088.38
2023-04-13T17:27:52.832Z,99094.41
2023-04-13T17:30:22.716Z,99100.75
2023-04-13T17:32:52.587Z,99099.41
2023-04-13T17:35:21.424Z,99101.81
2023-04-13T17:37:49.773Z,99108.16
2023-04-13T17:40:18.162Z,99103.63
2023-04-13T17:42:46.448Z,99109.22
2023-04-13T17:45:14.764Z,99108.69
2023-04-13T17:47:43.109Z,99108.91
2023-04-13T17:50:13.829Z,99110.78
2023-04-13T17:52:42.518Z,99112.63
2023-04-13T17:55:11.426Z,99119.50
2023-04-13T17:57:39.725Z,99144.16
2023-04-13T18:00:09.833Z,99130.13
2023-04-13T18:02:39.434Z,99140.19
2023-04-13T18:05:15.220Z,99144.41
2023-04-13T18:07:45.608Z,99140.41
2023-04-13T18:10:14.561Z,99125.06
2023-04-13T18:12:43.006Z,99145.47
2023-04-13T18:15:11.999Z,99142.03
2023-04-13T18:17:41.022Z,99146.75
2023-04-13T18:20:11.146Z,99149.13
2023-04-13T18:22:39.616Z,99152.03
2023-04-13T18:25:10.781Z,99140.31
2023-04-13T18:27:39.125Z,99141.38
2023-04-13T18:30:09.552Z,99150.88
2023-04-13T18:32:37.919Z,99161.47
2023-04-13T18:35:06.881Z,99158.00
2023-04-13T18:37:35.217Z,99172.53
2023-04-13T18:40:05.304Z,99159.00
2023-04-13T18:42:35.046Z,99161.41
2023-04-13T18:45:03.439Z,99164.06
2023-04-13T18:47:31.807Z,99156.91
2023-04-13T18:50:00.837Z,99166.94
2023-04-13T18:52:29.948Z,99168.00
2023-04-13T18:54:58.253Z,99164.56
2023-04-13T18:57:26.717Z,99164.78
2023-04-13T18:59:59.051Z,99158.69
2023-04-13T19:02:27.685Z,99162.09
2023-04-13T19:04:56.388Z,99176.13
2023-04-13T19:07:24.796Z,99165.50
2023-04-13T19:09:53.541Z,99176.63
2023-04-13T19:12:21.925Z,99175.03
2023-04-13T19:14:50.437Z,99162.28
2023-04-13T19:17:21.354Z,99166.78
2023-04-13T19:19:49.784Z,99167.03
2023-04-13T19:22:19.340Z,99160.63
2023-04-13T19:24:48.156Z,99160.63
2023-04-13T19:27:16.675Z,99174.91
2023-04-13T19:29:45.036Z,99168.03
2023-04-13T19:32:16.673Z,99170.91
2023-04-13T19:34:47.041Z,99173.22
2023-04-13T19:37:16.587Z,99182.22
2023-04-13T19:39:44.973Z,99178.47
2023-04-13T19:42:13.431Z,99178.47
2023-04-13T19:44:41.761Z,99179.50
2023-04-13T19:47:10.172Z,99180.25
2023-04-13T19:49:41.384Z,99182.34
2023-04-13T19:52:16.195Z,99189.22
2023-04-13T19:54:44.616Z,99190.53
2023-04-13T19:57:13.997Z,99192.63
2023-04-13T19:59:44.090Z,99194.69
2023-04-13T20:02:12.856Z,99201.84
2023-04-13T20:04:41.409Z,99196.00
2023-04-13T20:07:11.386Z,99196.50
2023-04-13T20:09:39.770Z,99200.66
2023-04-13T20:12:09.022Z,99200.66
2023-04-13T20:14:39.660Z,99199.56
2023-04-13T20:17:08.132Z,99194.75
2023-04-13T20:19:36.886Z,99202.38
2023-04-13T20:22:05.782Z,99207.66
2023-04-13T20:24:35.492Z,99206.31
2023-04-13T20:27:03.839Z,99219.22
2023-04-13T20:29:32.248Z,99212.56
2023-04-13T20:32:00.561Z,99213.88
2023-04-13T20:34:28.935Z,99219.63
2023-04-13T20:36:58.867Z,99220.13
2023-04-13T20:39:29.805Z,99222.44
2023-04-13T20:42:04.786Z,99214.75
2023-04-13T20:44:37.934Z,99225.56
2023-04-13T20:47:06.541Z,99232.97
2023-04-13T20:49:34.933Z,99227.34
2023-04-13T20:52:03.424Z,99234.72
2023-04-13T20:54:31.849Z,99232.53
2023-04-13T20:57:01.706Z,99216.03
2023-04-13T20:59:31.074Z,99230.06
2023-04-13T21:02:00.122Z,99226.88
2023-04-13T21:04:28.678Z,99227.59
2023-04-13T21:06:57.039Z,99220.16
2023-04-13T21:09:25.423Z,99229.34
2023-04-13T21:11:53.833Z,99222.69
2023-04-13T21:14:24.779Z,99221.56
2023-04-13T21:16:53.228Z,99217.81
2023-04-13T21:19:21.732Z,99233.91
2023-04-13T21:21:50.163Z,99235.19
2023-04-13T21:24:18.611Z,99233.81
2023-04-13T21:26:47.007Z,99236.13
2023-04-13T21:29:16.417Z,99233.16
2023-04-13T21:31:46.173Z,99236.06
2023-04-13T21:34:22.483Z,99234.94
2023-04-13T21:36:52.070Z,99228.28
2023-04-13T21:39:20.594Z,99223.44
2023-04-13T21:41:49.017Z,99231.38
2023-04-13T21:44:29.273Z,99231.03
2023-04-13T21:47:00.145Z,99230.72
2023-04-13T21:49:28.564Z,99229.34
2023-04-13T21:51:57.023Z,99223.25
2023-04-13T21:54:25.464Z,99228.22
2023-04-13T21:56:53.833Z,99227.66
2023-04-13T21:59:26.687Z,99220.69
2023-04-13T22:01:55.329Z,99219.88
2023-04-13T22:04:25.250Z,99209.78
2023-04-13T22:06:53.698Z,99223.25
2023-04-13T22:09:22.220Z,99220.81
2023-04-13T22:11:51.490Z,99210.19
2023-04-13T22:14:20.328Z,99213.59
2023-04-13T22:16:48.928Z,99217.50
2023-04-13T22:19:17.357Z,99229.38
2023-04-13T22:21:47.083Z,99233.28
2023-04-13T22:24:16.093Z,99237.19
2023-04-13T22:26:44.444Z,99242.91
2023-04-13T22:29:13.387Z,99233.88
2023-04-13T22:31:41.806Z,99237.81
2023-04-13T22:34:10.581Z,99236.97
2023-04-13T22:36:38.977Z,99243.22
2023-04-13T22:39:08.746Z,99237.34
2023-04-13T22:41:37.058Z,99237.34
2023-04-13T22:44:05.666Z,99245.72
2023-04-13T22:46:34.244Z,99226.91
2023-04-13T22:49:04.163Z,99229.00
2023-04-13T22:51:40.099Z,99237.38
2023-04-13T22:54:10.070Z,99241.75
2023-04-13T22:56:38.429Z,99240.16
2023-04-13T22:59:06.814Z,99245.44
2023-04-13T23:01:35.271Z,99259.06
2023-04-13T23:04:03.804Z,99253.25
2023-04-13T23:06:32.342Z,99260.81
2023-04-13T23:09:00.999Z,99262.31
2023-04-13T23:11:30.912Z,99251.78
2023-04-13T23:14:00.660Z,99243.72
2023-04-13T23:16:29.412Z,99265.63
2023-04-13T23:18:58.150Z,99266.34
2023-04-13T23:21:27.613Z,99263.09
2023-04-13T23:23:56.230Z,99270.22
2023-04-13T23:26:24.601Z,99277.59
2023-04-13T23:28:54.424Z,99280.69
2023-04-13T23:31:22.803Z,99289.63
2023-04-13T23:33:51.985Z,99274.72
2023-04-13T23:36:21.822Z,99275.63
2023-04-13T23:38:50.236Z,99282.72
2023-04-13T23:41:18.594Z,99282.41
2023-04-13T23:43:47.166Z,99283.28
2023-04-13T23:46:17.209Z,99286.97
2023-04-13T23:48:45.589Z,99269.97
2023-04-13T23:51:13.953Z,99275.25
2023-04-13T23:53:42.366Z,99272.03
2023-04-13T23:56:10.741Z,99272.03
2023-04-13T23:58:39.086Z,99280.97
